sensor_id;sensor_type;location;lat;lon;timestamp;temperature;humidity
30150;DHT22;16962;48.646;9.026;2023-04-15T03:43:35;1.20;99.90
30150;DHT22;16962;48.646;9.026;2023-04-15T05:57:11;2.90;99.90
30150;DHT22;16962;48.646;9.026;2023-04-15T06:00:54;3.00;99.90
30150;DHT22;16962;48.646;9.026;2023-04-15T06:04:14;3.10;99.90
30150;DHT22;16962;48.646;9.026;2023-04-15T06:07:40;3.20;99.90
30150;DHT22;16962;48.646;9.026;2023-04-15T06:10:40;3.30;99.90
30150;DHT22;16962;48.646;9.026;2023-04-15T06:13:53;3.40;99.90
30150;DHT22;16962;48.646;9.026;2023-04-15T06:16:53;3.40;99.90
30150;DHT22;16962;48.646;9.026;2023-04-15T06:20:31;3.50;99.90
30150;DHT22;16962;48.646;9.026;2023-04-15T06:23:56;3.80;99.90
30150;DHT22;16962;48.646;9.026;2023-04-15T06:27:16;4.00;99.90
30150;DHT22;16962;48.646;9.026;2023-04-15T06:30:09;4.20;99.90
30150;DHT22;16962;48.646;9.026;2023-04-15T06:33:14;4.40;99.90
30150;DHT22;16962;48.646;9.026;2023-04-15T06:36:08;4.70;96.80
30150;DHT22;16962;48.646;9.026;2023-04-15T06:39:04;4.80;44.50
30150;DHT22;16962;48.646;9.026;2023-04-15T06:42:19;4.90;1.00
30150;DHT22;16962;48.646;9.026;2023-04-15T06:45:27;5.20;1.00
30150;DHT22;16962;48.646;9.026;2023-04-15T06:48:19;5.50;1.00
30150;DHT22;16962;48.646;9.026;2023-04-15T06:51:13;5.90;1.00
30150;DHT22;16962;48.646;9.026;2023-04-15T06:54:09;6.10;1.00
30150;DHT22;16962;48.646;9.026;2023-04-15T06:57:02;6.20;1.00
30150;DHT22;16962;48.646;9.026;2023-04-15T06:59:56;6.30;1.00
30150;DHT22;16962;48.646;9.026;2023-04-15T07:02:46;6.60;99.90
30150;DHT22;16962;48.646;9.026;2023-04-15T07:05:35;6.80;99.90
30150;DHT22;16962;48.646;9.026;2023-04-15T07:08:28;7.10;99.90
30150;DHT22;16962;48.646;9.026;2023-04-15T07:11:17;7.40;99.90
30150;DHT22;16962;48.646;9.026;2023-04-15T07:14:14;7.60;99.90
30150;DHT22;16962;48.646;9.026;2023-04-15T07:17:05;7.70;99.90
30150;DHT22;16962;48.646;9.026;2023-04-15T07:19:53;8.00;99.90
30150;DHT22;16962;48.646;9.026;2023-04-15T07:22:41;8.30;99.90
30150;DHT22;16962;48.646;9.026;2023-04-15T07:25:29;8.70;99.90
30150;DHT22;16962;48.646;9.026;2023-04-15T07:28:18;9.00;99.90
30150;DHT22;16962;48.646;9.026;2023-04-15T07:31:08;9.20;99.90
30150;DHT22;16962;48.646;9.026;2023-04-15T07:33:55;9.40;99.90
30150;DHT22;16962;48.646;9.026;2023-04-15T07:36:43;9.70;99.90
30150;DHT22;16962;48.646;9.026;2023-04-15T07:39:30;10.00;99.90
30150;DHT22;16962;48.646;9.026;2023-04-15T07:42:18;10.20;99.90
30150;DHT22;16962;48.646;9.026;2023-04-15T07:45:06;10.50;99.90
30150;DHT22;16962;48.646;9.026;2023-04-15T07:47:56;10.70;99.90
30150;DHT22;16962;48.646;9.026;2023-04-15T07:50:44;10.80;99.90
30150;DHT22;16962;48.646;9.026;2023-04-15T07:53:34;11.10;99.90
30150;DHT22;16962;48.646;9.026;2023-04-15T07:56:43;11.00;99.90
30150;DHT22;16962;48.646;9.026;2023-04-15T07:59:35;11.00;99.90
30150;DHT22;16962;48.646;9.026;2023-04-15T08:06:04;12.10;97.40
30150;DHT22;16962;48.646;9.026;2023-04-15T08:09:13;13.00;88.20
30150;DHT22;16962;48.646;9.026;2023-04-15T08:12:04;14.10;69.30
30150;DHT22;16962;48.646;9.026;2023-04-15T08:15:04;14.80;49.80
30150;DHT22;16962;48.646;9.026;2023-04-15T08:18:00;15.40;48.70
30150;DHT22;16962;48.646;9.026;2023-04-15T08:20:50;16.00;26.20
30150;DHT22;16962;48.646;9.026;2023-04-15T08:23:49;16.10;18.30
30150;DHT22;16962;48.646;9.026;2023-04-15T08:26:36;16.60;23.00
30150;DHT22;16962;48.646;9.026;2023-04-15T08:29:24;18.00;12.70
30150;DHT22;16962;48.646;9.026;2023-04-15T08:32:16;18.80;16.10
30150;DHT22;16962;48.646;9.026;2023-04-15T08:39:02;19.10;8.80
30150;DHT22;16962;48.646;9.026;2023-04-15T08:42:36;18.50;1.00
30150;DHT22;16962;48.646;9.026;2023-04-15T08:45:54;18.00;1.00
30150;DHT22;16962;48.646;9.026;2023-04-15T08:49:15;17.50;1.00
30150;DHT22;16962;48.646;9.026;2023-04-15T08:52:04;17.40;1.00
30150;DHT22;16962;48.646;9.026;2023-04-15T08:54:59;17.00;1.00
30150;DHT22;16962;48.646;9.026;2023-04-15T08:58:03;16.30;1.00
30150;DHT22;16962;48.646;9.026;2023-04-15T09:00:55;15.70;1.00
30150;DHT22;16962;48.646;9.026;2023-04-15T09:04:01;15.70;1.00
30150;DHT22;16962;48.646;9.026;2023-04-15T09:07:27;16.00;1.00
30150;DHT22;16962;48.646;9.026;2023-04-15T09:13:44;15.90;1.00
30150;DHT22;16962;48.646;9.026;2023-04-15T09:25:24;15.80;1.00
30150;DHT22;16962;48.646;9.026;2023-04-15T09:33:53;16.70;1.00
30150;DHT22;16962;48.646;9.026;2023-04-15T09:36:55;16.90;1.00
30150;DHT22;16962;48.646;9.026;2023-04-15T09:39:55;17.20;1.00
30150;DHT22;16962;48.646;9.026;2023-04-15T09:42:55;17.50;1.00
30150;DHT22;16962;48.646;9.026;2023-04-15T09:45:52;17.30;1.00
30150;DHT22;16962;48.646;9.026;2023-04-15T09:49:12;17.00;1.00
30150;DHT22;16962;48.646;9.026;2023-04-15T09:52:02;16.80;1.00
30150;DHT22;16962;48.646;9.026;2023-04-15T09:55:10;16.00;1.00
30150;DHT22;16962;48.646;9.026;2023-04-15T09:57:58;15.60;1.00
30150;DHT22;16962;48.646;9.026;2023-04-15T10:01:03;15.60;1.00
30150;DHT22;16962;48.646;9.026;2023-04-15T10:08:26;16.70;1.00
30150;DHT22;16962;48.646;9.026;2023-04-15T10:12:14;16.80;1.00
30150;DHT22;16962;48.646;9.026;2023-04-15T10:15:30;16.40;1.00
30150;DHT22;16962;48.646;9.026;2023-04-15T10:27:07;18.80;1.00
30150;DHT22;16962;48.646;9.026;2023-04-15T10:30:01;20.00;1.00
30150;DHT22;16962;48.646;9.026;2023-04-15T10:32:50;19.70;1.00
30150;DHT22;16962;48.646;9.026;2023-04-15T10:35:41;19.40;1.00
30150;DHT22;16962;48.646;9.026;2023-04-15T10:42:09;18.40;1.00
30150;DHT22;16962;48.646;9.026;2023-04-15T10:45:02;17.40;1.00
30150;DHT22;16962;48.646;9.026;2023-04-15T10:48:06;16.90;1.00
30150;DHT22;16962;48.646;9.026;2023-04-15T10:51:30;16.50;1.00
30150;DHT22;16962;48.646;9.026;2023-04-15T11:07:03;16.00;1.00
30150;DHT22;16962;48.646;9.026;2023-04-15T11:09:51;16.30;1.00
30150;DHT22;16962;48.646;9.026;2023-04-15T11:12:40;17.00;1.00
30150;DHT22;16962;48.646;9.026;2023-04-15T11:18:32;16.90;1.00
30150;DHT22;16962;48.646;9.026;2023-04-15T11:21:28;16.60;1.00
30150;DHT22;16962;48.646;9.026;2023-04-15T11:24:56;16.40;1.00
30150;DHT22;16962;48.646;9.026;2023-04-15T11:28:22;16.00;1.00
30150;DHT22;16962;48.646;9.026;2023-04-15T11:34:58;15.00;1.00
30150;DHT22;16962;48.646;9.026;2023-04-15T11:37:49;14.70;1.00
30150;DHT22;16962;48.646;9.026;2023-04-15T11:40:55;15.40;1.00
30150;DHT22;16962;48.646;9.026;2023-04-15T11:43:50;17.50;1.00
30150;DHT22;16962;48.646;9.026;2023-04-15T11:46:48;18.50;1.00
30150;DHT22;16962;48.646;9.026;2023-04-15T11:49:36;17.80;1.00
30150;DHT22;16962;48.646;9.026;2023-04-15T11:52:28;17.30;1.00
30150;DHT22;16962;48.646;9.026;2023-04-15T11:55:24;17.50;1.00
30150;DHT22;16962;48.646;9.026;2023-04-15T11:58:26;18.50;1.00
30150;DHT22;16962;48.646;9.026;2023-04-15T12:01:49;19.20;1.00
30150;DHT22;16962;48.646;9.026;2023-04-15T12:05:05;20.00;1.00
30150;DHT22;16962;48.646;9.026;2023-04-15T12:08:02;20.00;1.00
30150;DHT22;16962;48.646;9.026;2023-04-15T12:10:49;19.80;1.00
30150;DHT22;16962;48.646;9.026;2023-04-15T12:13:43;18.90;1.00
30150;DHT22;16962;48.646;9.026;2023-04-15T12:16:41;17.80;1.00
30150;DHT22;16962;48.646;9.026;2023-04-15T12:19:40;18.40;1.00
30150;DHT22;16962;48.646;9.026;2023-04-15T12:22:36;18.90;1.00
30150;DHT22;16962;48.646;9.026;2023-04-15T12:25:34;19.60;1.00
30150;DHT22;16962;48.646;9.026;2023-04-15T12:28:29;21.10;1.00
30150;DHT22;16962;48.646;9.026;2023-04-15T12:31:19;20.90;1.00
30150;DHT22;16962;48.646;9.026;2023-04-15T12:34:13;20.30;1.00
30150;DHT22;16962;48.646;9.026;2023-04-15T12:37:03;19.40;1.00
30150;DHT22;16962;48.646;9.026;2023-04-15T12:39:52;18.70;1.00
30150;DHT22;16962;48.646;9.026;2023-04-15T12:42:42;19.10;1.00
30150;DHT22;16962;48.646;9.026;2023-04-15T12:45:32;19.70;1.00
30150;DHT22;16962;48.646;9.026;2023-04-15T12:48:19;20.30;1.00
30150;DHT22;16962;48.646;9.026;2023-04-15T12:51:10;20.70;1.00
30150;DHT22;16962;48.646;9.026;2023-04-15T12:53:58;20.00;1.00
30150;DHT22;16962;48.646;9.026;2023-04-15T12:56:50;18.90;1.00
30150;DHT22;16962;48.646;9.026;2023-04-15T12:59:44;19.00;1.00
30150;DHT22;16962;48.646;9.026;2023-04-15T13:02:32;20.00;1.00
30150;DHT22;16962;48.646;9.026;2023-04-15T13:05:28;20.80;1.00
30150;DHT22;16962;48.646;9.026;2023-04-15T13:08:24;19.70;1.00
30150;DHT22;16962;48.646;9.026;2023-04-15T13:11:13;18.50;1.00
30150;DHT22;16962;48.646;9.026;2023-04-15T13:14:06;17.70;1.00
30150;DHT22;16962;48.646;9.026;2023-04-15T13:17:12;17.00;1.00
30150;DHT22;16962;48.646;9.026;2023-04-15T13:20:00;16.40;1.00
30150;DHT22;16962;48.646;9.026;2023-04-15T13:22:48;15.50;1.00
30150;DHT22;16962;48.646;9.026;2023-04-15T13:25:39;15.10;1.00
30150;DHT22;16962;48.646;9.026;2023-04-15T13:28:49;14.70;1.00
30150;DHT22;16962;48.646;9.026;2023-04-15T13:31:51;14.60;1.00
30150;DHT22;16962;48.646;9.026;2023-04-15T13:34:39;14.30;1.00
30150;DHT22;16962;48.646;9.026;2023-04-15T13:37:33;14.20;1.00
30150;DHT22;16962;48.646;9.026;2023-04-15T13:40:40;13.60;1.00
30150;DHT22;16962;48.646;9.026;2023-04-15T13:43:31;13.20;1.00
30150;DHT22;16962;48.646;9.026;2023-04-15T13:46:20;12.90;1.00
30150;DHT22;16962;48.646;9.026;2023-04-15T13:49:15;12.70;1.00
30150;DHT22;16962;48.646;9.026;2023-04-15T13:52:02;12.40;1.00
30150;DHT22;16962;48.646;9.026;2023-04-15T13:54:58;12.00;1.00
30150;DHT22;16962;48.646;9.026;2023-04-15T13:58:09;11.70;1.00
30150;DHT22;16962;48.646;9.026;2023-04-15T14:01:15;11.40;1.00
30150;DHT22;16962;48.646;9.026;2023-04-15T14:04:16;11.30;1.00
30150;DHT22;16962;48.646;9.026;2023-04-15T14:07:05;11.30;1.00
30150;DHT22;16962;48.646;9.026;2023-04-15T14:09:54;11.50;1.00
30150;DHT22;16962;48.646;9.026;2023-04-15T14:12:41;11.80;1.00
30150;DHT22;16962;48.646;9.026;2023-04-15T14:15:52;12.00;1.00
30150;DHT22;16962;48.646;9.026;2023-04-15T14:18:40;12.40;1.00
30150;DHT22;16962;48.646;9.026;2023-04-15T14:21:30;12.60;1.00
30150;DHT22;16962;48.646;9.026;2023-04-15T14:24:24;12.80;1.00
30150;DHT22;16962;48.646;9.026;2023-04-15T14:27:12;12.90;1.00
30150;DHT22;16962;48.646;9.026;2023-04-15T14:30:21;13.00;1.00
30150;DHT22;16962;48.646;9.026;2023-04-15T14:33:08;12.90;1.00
30150;DHT22;16962;48.646;9.026;2023-04-15T14:35:56;12.60;1.00
30150;DHT22;16962;48.646;9.026;2023-04-15T14:38:44;12.50;1.00
30150;DHT22;16962;48.646;9.026;2023-04-15T14:41:34;12.20;1.00
30150;DHT22;16962;48.646;9.026;2023-04-15T14:44:23;12.00;1.00
30150;DHT22;16962;48.646;9.026;2023-04-15T14:47:11;11.80;1.00
30150;DHT22;16962;48.646;9.026;2023-04-15T14:50:01;11.60;1.00
30150;DHT22;16962;48.646;9.026;2023-04-15T14:52:49;11.50;1.00
30150;DHT22;16962;48.646;9.026;2023-04-15T14:55:39;11.50;1.00
30150;DHT22;16962;48.646;9.026;2023-04-15T14:58:27;11.50;1.00
30150;DHT22;16962;48.646;9.026;2023-04-15T15:01:17;11.50;1.00
30150;DHT22;16962;48.646;9.026;2023-04-15T15:04:05;11.40;1.00
30150;DHT22;16962;48.646;9.026;2023-04-15T15:06:55;11.50;1.00
30150;DHT22;16962;48.646;9.026;2023-04-15T15:09:44;11.50;1.00
30150;DHT22;16962;48.646;9.026;2023-04-15T15:12:32;11.50;1.00
30150;DHT22;16962;48.646;9.026;2023-04-15T15:15:20;11.40;1.00
30150;DHT22;16962;48.646;9.026;2023-04-15T15:18:11;11.30;1.00
30150;DHT22;16962;48.646;9.026;2023-04-15T15:21:01;11.30;1.00
30150;DHT22;16962;48.646;9.026;2023-04-15T15:23:50;11.20;1.00
30150;DHT22;16962;48.646;9.026;2023-04-15T15:26:39;11.20;1.00
30150;DHT22;16962;48.646;9.026;2023-04-15T15:29:36;11.10;1.00
30150;DHT22;16962;48.646;9.026;2023-04-15T15:32:24;11.10;1.00
30150;DHT22;16962;48.646;9.026;2023-04-15T15:35:13;11.00;1.00
30150;DHT22;16962;48.646;9.026;2023-04-15T15:38:04;11.10;1.00
30150;DHT22;16962;48.646;9.026;2023-04-15T15:40:52;11.10;1.00
30150;DHT22;16962;48.646;9.026;2023-04-15T15:43:40;11.10;1.00
30150;DHT22;16962;48.646;9.026;2023-04-15T15:46:28;11.10;1.00
30150;DHT22;16962;48.646;9.026;2023-04-15T15:49:17;11.10;1.00
30150;DHT22;16962;48.646;9.026;2023-04-15T15:52:06;10.90;1.00
30150;DHT22;16962;48.646;9.026;2023-04-15T15:54:57;10.80;1.00
30150;DHT22;16962;48.646;9.026;2023-04-15T15:57:45;10.70;1.00
30150;DHT22;16962;48.646;9.026;2023-04-15T16:00:33;10.70;1.00
30150;DHT22;16962;48.646;9.026;2023-04-15T16:03:24;10.60;1.00
30150;DHT22;16962;48.646;9.026;2023-04-15T16:06:30;10.70;1.00
30150;DHT22;16962;48.646;9.026;2023-04-15T16:09:50;10.70;1.00
30150;DHT22;16962;48.646;9.026;2023-04-15T16:12:54;10.70;1.00
30150;DHT22;16962;48.646;9.026;2023-04-15T16:15:45;10.70;1.00
30150;DHT22;16962;48.646;9.026;2023-04-15T16:18:33;10.60;1.00
30150;DHT22;16962;48.646;9.026;2023-04-15T16:21:21;10.50;1.00
30150;DHT22;16962;48.646;9.026;2023-04-15T16:24:14;10.50;1.00
30150;DHT22;16962;48.646;9.026;2023-04-15T16:27:01;10.40;1.00
30150;DHT22;16962;48.646;9.026;2023-04-15T16:29:49;10.40;1.00
30150;DHT22;16962;48.646;9.026;2023-04-15T16:32:37;10.50;1.00
30150;DHT22;16962;48.646;9.026;2023-04-15T16:35:28;10.60;1.00
30150;DHT22;16962;48.646;9.026;2023-04-15T16:38:24;10.60;1.00
30150;DHT22;16962;48.646;9.026;2023-04-15T16:41:11;10.50;1.00
30150;DHT22;16962;48.646;9.026;2023-04-15T16:44:00;10.30;1.00
30150;DHT22;16962;48.646;9.026;2023-04-15T16:46:50;10.20;1.00
30150;DHT22;16962;48.646;9.026;2023-04-15T16:49:43;10.00;1.00
30150;DHT22;16962;48.646;9.026;2023-04-15T16:52:50;9.80;1.00
30150;DHT22;16962;48.646;9.026;2023-04-15T16:55:38;9.70;1.00
30150;DHT22;16962;48.646;9.026;2023-04-15T16:58:26;9.50;8.60
30150;DHT22;16962;48.646;9.026;2023-04-15T17:01:15;9.40;21.20
30150;DHT22;16962;48.646;9.026;2023-04-15T17:04:02;9.30;42.30
30150;DHT22;16962;48.646;9.026;2023-04-15T17:06:55;9.20;55.10
30150;DHT22;16962;48.646;9.026;2023-04-15T17:09:56;9.10;93.50
30150;DHT22;16962;48.646;9.026;2023-04-15T17:12:44;9.00;99.90
30150;DHT22;16962;48.646;9.026;2023-04-15T17:15:32;8.90;99.90
30150;DHT22;16962;48.646;9.026;2023-04-15T17:18:23;8.70;99.90
30150;DHT22;16962;48.646;9.026;2023-04-15T17:21:11;8.70;99.90
30150;DHT22;16962;48.646;9.026;2023-04-15T17:23:58;8.60;99.90
30150;DHT22;16962;48.646;9.026;2023-04-15T17:26:46;8.50;99.90
30150;DHT22;16962;48.646;9.026;2023-04-15T17:29:37;8.30;99.90
30150;DHT22;16962;48.646;9.026;2023-04-15T17:32:25;8.20;99.90
30150;DHT22;16962;48.646;9.026;2023-04-15T17:35:18;8.00;1.00
30150;DHT22;16962;48.646;9.026;2023-04-15T17:38:08;7.90;58.60
30150;DHT22;16962;48.646;9.026;2023-04-15T17:40:56;7.70;99.90
30150;DHT22;16962;48.646;9.026;2023-04-15T17:44:13;7.60;99.90
30150;DHT22;16962;48.646;9.026;2023-04-15T17:47:05;7.50;1.00
30150;DHT22;16962;48.646;9.026;2023-04-15T17:50:02;7.40;99.90
30150;DHT22;16962;48.646;9.026;2023-04-15T17:52:49;7.40;99.90
30150;DHT22;16962;48.646;9.026;2023-04-15T17:55:38;7.30;99.90
30150;DHT22;16962;48.646;9.026;2023-04-15T18:02:53;7.10;1.00
30150;DHT22;16962;48.646;9.026;2023-04-15T18:06:15;7.00;99.90
30150;DHT22;16962;48.646;9.026;2023-04-15T18:09:03;7.00;99.90
30150;DHT22;16962;48.646;9.026;2023-04-15T18:12:09;7.00;99.90
30150;DHT22;16962;48.646;9.026;2023-04-15T18:19:24;6.90;1.00
30150;DHT22;16962;48.646;9.026;2023-04-15T18:22:59;6.90;99.90
30150;DHT22;16962;48.646;9.026;2023-04-15T18:34:25;6.70;1.00
30150;DHT22;16962;48.646;9.026;2023-04-15T18:37:16;6.70;1.00
30150;DHT22;16962;48.646;9.026;2023-04-15T18:40:36;6.70;2.80
30150;DHT22;16962;48.646;9.026;2023-04-15T18:43:26;6.80;99.90
30150;DHT22;16962;48.646;9.026;2023-04-15T18:46:22;6.80;99.90
30150;DHT22;16962;48.646;9.026;2023-04-15T18:57:39;6.60;99.90
30150;DHT22;16962;48.646;9.026;2023-04-15T19:00:45;6.60;99.90
30150;DHT22;16962;48.646;9.026;2023-04-15T19:04:25;6.60;99.90
30150;DHT22;16962;48.646;9.026;2023-04-15T19:07:35;6.60;99.90
30150;DHT22;16962;48.646;9.026;2023-04-15T19:14:45;6.60;99.90
30150;DHT22;16962;48.646;9.026;2023-04-15T19:18:20;6.60;99.90
30150;DHT22;16962;48.646;9.026;2023-04-15T19:21:55;6.60;99.90
30150;DHT22;16962;48.646;9.026;2023-04-15T19:28:50;6.50;99.90
30150;DHT22;16962;48.646;9.026;2023-04-15T19:35:53;6.50;99.90
30150;DHT22;16962;48.646;9.026;2023-04-15T19:38:47;6.60;99.90
30150;DHT22;16962;48.646;9.026;2023-04-15T19:41:43;6.60;99.90
30150;DHT22;16962;48.646;9.026;2023-04-15T19:44:37;6.60;99.90
30150;DHT22;16962;48.646;9.026;2023-04-15T19:51:29;6.50;99.90
30150;DHT22;16962;48.646;9.026;2023-04-15T19:54:29;6.50;99.90
30150;DHT22;16962;48.646;9.026;2023-04-15T20:12:47;6.40;99.90
30150;DHT22;16962;48.646;9.026;2023-04-15T20:15:41;6.40;99.90
30150;DHT22;16962;48.646;9.026;2023-04-15T20:18:30;6.30;99.90
30150;DHT22;16962;48.646;9.026;2023-04-15T20:21:18;6.30;99.90
30150;DHT22;16962;48.646;9.026;2023-04-15T20:32:18;6.30;99.90
30150;DHT22;16962;48.646;9.026;2023-04-15T20:35:15;6.30;99.90
30150;DHT22;16962;48.646;9.026;2023-04-15T20:38:05;6.40;99.90
30150;DHT22;16962;48.646;9.026;2023-04-15T20:45:44;6.30;99.90
30150;DHT22;16962;48.646;9.026;2023-04-15T20:49:02;6.30;99.90
30150;DHT22;16962;48.646;9.026;2023-04-15T20:52:10;6.30;99.90
30150;DHT22;16962;48.646;9.026;2023-04-15T20:55:15;6.30;99.90
30150;DHT22;16962;48.646;9.026;2023-04-15T20:58:25;6.40;99.90
30150;DHT22;16962;48.646;9.026;2023-04-15T21:05:09;6.40;99.90
30150;DHT22;16962;48.646;9.026;2023-04-15T21:07:58;6.30;99.90
30150;DHT22;16962;48.646;9.026;2023-04-15T21:15:03;6.40;99.90
30150;DHT22;16962;48.646;9.026;2023-04-15T21:26:16;6.30;99.90
30150;DHT22;16962;48.646;9.026;2023-04-15T21:29:04;6.30;99.90
30150;DHT22;16962;48.646;9.026;2023-04-15T21:32:14;6.30;99.90
30150;DHT22;16962;48.646;9.026;2023-04-15T21:35:02;6.30;99.90
30150;DHT22;16962;48.646;9.026;2023-04-15T21:41:10;6.30;99.90
30150;DHT22;16962;48.646;9.026;2023-04-15T21:44:02;6.30;99.90
30150;DHT22;16962;48.646;9.026;2023-04-15T21:50:57;6.30;99.90
30150;DHT22;16962;48.646;9.026;2023-04-15T21:53:54;6.30;99.90
30150;DHT22;16962;48.646;9.026;2023-04-15T21:57:08;6.30;99.90
30150;DHT22;16962;48.646;9.026;2023-04-15T22:00:06;6.30;99.90
30150;DHT22;16962;48.646;9.026;2023-04-15T22:02:57;6.30;99.90
30150;DHT22;16962;48.646;9.026;2023-04-15T22:09:24;6.40;99.90
30150;DHT22;16962;48.646;9.026;2023-04-15T22:12:13;6.30;99.90
30150;DHT22;16962;48.646;9.026;2023-04-15T22:15:01;6.30;99.90
30150;DHT22;16962;48.646;9.026;2023-04-15T22:17:58;6.30;99.90
30150;DHT22;16962;48.646;9.026;2023-04-15T22:20:50;6.30;99.90
30150;DHT22;16962;48.646;9.026;2023-04-15T22:23:49;6.30;99.90
30150;DHT22;16962;48.646;9.026;2023-04-15T22:26:58;6.30;99.90
30150;DHT22;16962;48.646;9.026;2023-04-15T22:29:49;6.30;99.90
30150;DHT22;16962;48.646;9.026;2023-04-15T22:32:43;6.30;99.90
30150;DHT22;16962;48.646;9.026;2023-04-15T22:35:40;6.30;99.90
30150;DHT22;16962;48.646;9.026;2023-04-15T22:38:35;6.30;99.90
30150;DHT22;16962;48.646;9.026;2023-04-15T22:41:30;6.30;99.90
30150;DHT22;16962;48.646;9.026;2023-04-15T22:44:19;6.30;99.90
30150;DHT22;16962;48.646;9.026;2023-04-15T22:47:06;6.30;99.90
30150;DHT22;16962;48.646;9.026;2023-04-15T22:50:31;6.30;99.90
30150;DHT22;16962;48.646;9.026;2023-04-15T22:53:36;6.30;99.90
30150;DHT22;16962;48.646;9.026;2023-04-15T22:56:23;6.30;99.90
30150;DHT22;16962;48.646;9.026;2023-04-15T22:59:11;6.30;99.90
30150;DHT22;16962;48.646;9.026;2023-04-15T23:02:07;6.30;99.90
30150;DHT22;16962;48.646;9.026;2023-04-15T23:04:59;6.30;99.90
30150;DHT22;16962;48.646;9.026;2023-04-15T23:08:00;6.30;99.90
30150;DHT22;16962;48.646;9.026;2023-04-15T23:11:05;6.30;99.90
30150;DHT22;16962;48.646;9.026;2023-04-15T23:13:52;6.30;99.90
30150;DHT22;16962;48.646;9.026;2023-04-15T23:16:46;6.20;99.90
30150;DHT22;16962;48.646;9.026;2023-04-15T23:19:37;6.20;99.90
30150;DHT22;16962;48.646;9.026;2023-04-15T23:22:33;6.30;99.90
30150;DHT22;16962;48.646;9.026;2023-04-15T23:25:26;6.30;99.90
30150;DHT22;16962;48.646;9.026;2023-04-15T23:28:27;6.30;99.90
30150;DHT22;16962;48.646;9.026;2023-04-15T23:31:14;6.20;99.90
30150;DHT22;16962;48.646;9.026;2023-04-15T23:34:23;6.20;99.90
30150;DHT22;16962;48.646;9.026;2023-04-15T23:37:16;6.30;99.90
30150;DHT22;16962;48.646;9.026;2023-04-15T23:40:06;6.30;99.90
30150;DHT22;16962;48.646;9.026;2023-04-15T23:42:59;6.30;99.90
30150;DHT22;16962;48.646;9.026;2023-04-15T23:45:46;6.30;99.90
30150;DHT22;16962;48.646;9.026;2023-04-15T23:48:37;6.30;99.90
30150;DHT22;16962;48.646;9.026;2023-04-15T23:51:32;6.30;99.90
30150;DHT22;16962;48.646;9.026;2023-04-15T23:54:20;6.30;99.90
30150;DHT22;16962;48.646;9.026;2023-04-15T23:57:09;6.30;99.90
